Mariner A — 9HVA7 — position and weather

sailwx.info

Track history (hours):
 
Tides and Currents Weather Stations Pressure Air Temp Water Temp Dewpoint Dewpoint Depression Visibility Wind Speed Wind Dir Waves Ship Positions

Mariner A

Last reported at 2016-May-26 20:20 UTC. Time now 2016-May-27 00:23 UTC.
Position N 40°44' E 028°38'.

Length 176 m; draft 9.4 m.

Type: Tanker. MMSI: 215817000.

Date/timePositionNaut miles runAvg speedWind from/ knotsBaromVisibWave heightAir tempDewpointWater temp
2016-May-26 20:20N 40°44' E 028°38'1113.8
2016-May-26 19:33N 40°52' E 028°48'8 7.9
2016-May-26 18:32N 40°57' E 028°56'5 4.2
2016-May-26 17:21N 41°01' E 028°60'  
2016-May-19 23:25N 40°55' E 028°58'5 4.4
2016-May-19 22:20N 40°51' E 028°56'0 0.3
2016-May-19 21:14N 40°50' E 028°56'0 0.2
2016-May-19 20:32N 40°50' E 028°56'0 0.1
2016-May-19 19:26N 40°51' E 028°56'3 3.4
2016-May-19 18:30N 40°47' E 028°56'6 5.7
2016-May-19 17:32N 40°44' E 028°50'1 0.6
2016-May-19 16:24N 40°43' E 028°51'1 0.6
2016-May-19 15:25N 40°43' E 028°52'0 0.5
2016-May-19 14:33N 40°43' E 028°52'0 0.4
2016-May-19 13:33N 40°43' E 028°53'0 0.3
2016-May-19 12:33N 40°43' E 028°53'0 0.2
2016-May-19 11:33N 40°43' E 028°54'0 0.2
2016-May-19 10:29N 40°43' E 028°54'0 0.1
2016-May-19 09:30N 40°43' E 028°54'0 0.3
2016-May-19 08:03N 40°44' E 028°53'0 0.3
2016-May-19 07:26N 40°44' E 028°53'230 7.6
2016-May-18 01:17N 37°40' E 025°53'912.6
2016-May-18 00:32N 37°31' E 025°54'  
Track history (hours):
 
Tides and Currents Weather Stations Pressure Air Temp Water Temp Dewpoint Dewpoint Depression Visibility Wind Speed Wind Dir Waves Ship Positions

Mariner A

Last reported at 2016-May-26 20:20 UTC. Time now 2016-May-27 00:23 UTC.
Position N 40°44' E 028°38'.

Length 176 m; draft 9.4 m.

Type: Tanker. MMSI: 215817000.

Date/timePositionNaut miles runAvg speedWind from/ knotsBaromVisibWave heightAir tempDewpointWater temp
2016-May-26 20:20N 40°44' E 028°38'1113.8
2016-May-26 19:33N 40°52' E 028°48'8 7.9
2016-May-26 18:32N 40°57' E 028°56'5 4.2
2016-May-26 17:21N 41°01' E 028°60'  
2016-May-19 23:25N 40°55' E 028°58'5 4.4
2016-May-19 22:20N 40°51' E 028°56'0 0.3
2016-May-19 21:14N 40°50' E 028°56'0 0.2
2016-May-19 20:32N 40°50' E 028°56'0 0.1
2016-May-19 19:26N 40°51' E 028°56'3 3.4
2016-May-19 18:30N 40°47' E 028°56'6 5.7
2016-May-19 17:32N 40°44' E 028°50'1 0.6
2016-May-19 16:24N 40°43' E 028°51'1 0.6
2016-May-19 15:25N 40°43' E 028°52'0 0.5
2016-May-19 14:33N 40°43' E 028°52'0 0.4
2016-May-19 13:33N 40°43' E 028°53'0 0.3
2016-May-19 12:33N 40°43' E 028°53'0 0.2
2016-May-19 11:33N 40°43' E 028°54'0 0.2
2016-May-19 10:29N 40°43' E 028°54'0 0.1
2016-May-19 09:30N 40°43' E 028°54'0 0.3
2016-May-19 08:03N 40°44' E 028°53'0 0.3
2016-May-19 07:26N 40°44' E 028°53'230 7.6
2016-May-18 01:17N 37°40' E 025°53'912.6
2016-May-18 00:32N 37°31' E 025°54'  

Dump ship's entire track history